createdAt,value
2019-01-10T00:06:33.860Z,1006.89
2019-01-10T00:07:32.578Z,1006.91
2019-01-10T00:08:31.122Z,1006.93
2019-01-10T00:09:30.129Z,1006.95
2019-01-10T00:10:28.704Z,1006.98
2019-01-10T00:11:27.485Z,1006.96
2019-01-10T00:12:26.249Z,1006.98
2019-01-10T00:13:24.805Z,1007
2019-01-10T00:14:23.375Z,1007.04
2019-01-10T00:15:22.221Z,1007.02
2019-01-10T00:16:20.799Z,1007
2019-01-10T00:17:19.356Z,1007.04
2019-01-10T00:18:17.904Z,1006.98
2019-01-10T00:19:16.466Z,1007.02
2019-01-10T00:20:15.022Z,1007.07
2019-01-10T00:21:13.801Z,1007.05
2019-01-10T00:22:12.429Z,1007.11
2019-01-10T00:23:11.270Z,1007.1
2019-01-10T00:24:09.883Z,1007.04
2019-01-10T00:25:08.445Z,1007.07
2019-01-10T00:26:06.975Z,1007.05
2019-01-10T00:27:05.512Z,1007.05
2019-01-10T00:28:04.039Z,1007.01
2019-01-10T00:29:02.601Z,1007.02
2019-01-10T00:30:01.254Z,1007.04
2019-01-10T00:31:00.120Z,1007.03
2019-01-10T00:31:58.835Z,1007.04
2019-01-10T00:32:57.500Z,1007.06
2019-01-10T00:33:56.117Z,1007.09
2019-01-10T00:34:54.661Z,1007.12
2019-01-10T00:35:53.201Z,1007.12
2019-01-10T00:36:51.790Z,1007.13
2019-01-10T00:37:50.489Z,1007.17
2019-01-10T00:38:49.038Z,1007.1
2019-01-10T00:39:47.702Z,1007.13
2019-01-10T00:40:46.539Z,1007.12
2019-01-10T00:41:45.086Z,1007.12
2019-01-10T00:42:49.006Z,1007.21
2019-01-10T00:43:42.268Z,1007.21
2019-01-10T00:44:40.826Z,1007.24
2019-01-10T00:45:39.413Z,1007.25
2019-01-10T00:46:37.993Z,1007.19
2019-01-10T00:47:36.614Z,1007.21
2019-01-10T00:48:35.139Z,1007.19
2019-01-10T00:49:33.833Z,1007.21
2019-01-10T00:50:32.557Z,1007.15
2019-01-10T00:51:31.130Z,1007.22
2019-01-10T00:52:29.842Z,1007.17
2019-01-10T00:55:10.342Z,1007.23
2019-01-10T00:56:08.875Z,1007.21
2019-01-10T00:57:07.545Z,1007.26
2019-01-10T00:58:06.264Z,1007.31
2019-01-10T00:59:04.821Z,1007.32
2019-01-10T01:00:03.357Z,1007.31
2019-01-10T01:02:43.408Z,1007.39
2019-01-10T01:03:41.940Z,1007.35
2019-01-10T01:04:40.488Z,1007.38
2019-01-10T01:05:39.057Z,1007.36
2019-01-10T01:06:37.935Z,1007.36
2019-01-10T01:07:36.562Z,1007.37
2019-01-10T01:08:35.139Z,1007.33
2019-01-10T01:09:33.953Z,1007.38
2019-01-10T01:10:32.481Z,1007.33
2019-01-10T01:11:31.099Z,1007.3
2019-01-10T01:12:29.637Z,1007.28
2019-01-10T01:13:28.329Z,1007.27
2019-01-10T01:14:26.860Z,1007.25
2019-01-10T01:15:25.434Z,1007.33
2019-01-10T01:16:24.100Z,1007.34
2019-01-10T01:17:22.740Z,1007.38
2019-01-10T01:18:21.314Z,1007.39
2019-01-10T01:19:20.140Z,1007.33
2019-01-10T01:20:18.739Z,1007.41
2019-01-10T01:21:17.252Z,1007.4
2019-01-10T01:22:15.831Z,1007.42
2019-01-10T01:23:14.619Z,1007.41
2019-01-10T01:24:14.173Z,1007.38
2019-01-10T01:25:12.137Z,1007.46
2019-01-10T01:26:10.690Z,1007.42
2019-01-10T01:27:09.262Z,1007.42
2019-01-10T01:28:07.837Z,1007.44
2019-01-10T01:29:06.419Z,1007.45
2019-01-10T01:30:04.990Z,1007.47
2019-01-10T01:31:03.500Z,1007.42
2019-01-10T01:32:02.515Z,1007.45
2019-01-10T01:33:01.031Z,1007.46
2019-01-10T01:33:59.745Z,1007.49
2019-01-10T01:34:58.340Z,1007.5
2019-01-10T01:35:56.879Z,1007.59
2019-01-10T01:36:55.429Z,1007.51
2019-01-10T01:37:54.050Z,1007.51
2019-01-10T01:38:52.552Z,1007.62
2019-01-10T01:39:51.149Z,1007.59
2019-01-10T01:40:49.963Z,1007.57
2019-01-10T01:41:48.683Z,1007.57
2019-01-10T01:42:47.345Z,1007.58
2019-01-10T01:43:45.970Z,1007.61
2019-01-10T01:44:44.536Z,1007.63
2019-01-10T01:45:43.120Z,1007.68
2019-01-10T01:48:23.199Z,1007.77
2019-01-10T01:49:22.001Z,1007.76
2019-01-10T01:50:20.688Z,1007.79
2019-01-10T01:51:19.303Z,1007.78
2019-01-10T01:52:17.988Z,1007.84
2019-01-10T01:53:16.551Z,1007.8
2019-01-10T01:54:15.090Z,1007.82
2019-01-10T01:55:13.644Z,1007.86
2019-01-10T01:56:12.187Z,1007.88
2019-01-10T01:57:10.750Z,1007.87
2019-01-10T01:58:09.273Z,1007.89
2019-01-10T01:59:07.884Z,1007.86
2019-01-10T02:00:06.571Z,1007.85
2019-01-10T02:01:05.109Z,1007.89
2019-01-10T02:02:03.710Z,1007.89
2019-01-10T02:03:02.541Z,1007.89
2019-01-10T02:04:01.063Z,1008
2019-01-10T02:04:59.732Z,1007.96
2019-01-10T02:05:58.274Z,1008.02
2019-01-10T02:06:56.839Z,1008.07
2019-01-10T02:07:55.411Z,1008.06
2019-01-10T02:08:54.116Z,1008.09
2019-01-10T02:09:52.692Z,1008.09
2019-01-10T02:10:51.275Z,1008.05
2019-01-10T02:11:50.292Z,1008.09
2019-01-10T02:12:48.890Z,1008.07
2019-01-10T02:13:47.470Z,1008.07
2019-01-10T02:14:46.009Z,1008.09
2019-01-10T02:15:44.551Z,1008.14
2019-01-10T02:16:43.097Z,1008.13
2019-01-10T02:17:48.713Z,1008.14
2019-01-10T02:18:40.600Z,1008.17
2019-01-10T02:19:39.139Z,1008.09
2019-01-10T02:20:37.953Z,1008.12
2019-01-10T02:21:36.571Z,1008.13
2019-01-10T02:22:35.149Z,1008.09
2019-01-10T02:23:33.987Z,1008.1
2019-01-10T02:24:32.659Z,1008.15
2019-01-10T02:25:31.216Z,1008.16
2019-01-10T02:26:29.874Z,1008.18
2019-01-10T02:27:28.563Z,1008.15
2019-01-10T02:28:28.934Z,1008.21
2019-01-10T02:29:25.662Z,1008.16
2019-01-10T02:30:24.223Z,1008.23
2019-01-10T02:31:22.752Z,1008.21
2019-01-10T02:32:21.284Z,1008.17
2019-01-10T02:33:20.074Z,1008.19
2019-01-10T02:34:18.698Z,1008.17
2019-01-10T02:35:17.246Z,1008.16
2019-01-10T02:36:15.910Z,1008.18
2019-01-10T02:37:14.557Z,1008.15
2019-01-10T02:38:13.118Z,1008.15
2019-01-10T02:39:11.767Z,1008.21
2019-01-10T02:40:10.335Z,1008.12
2019-01-10T02:41:08.898Z,1008.13
2019-01-10T02:42:07.450Z,1008.18
2019-01-10T02:43:06.088Z,1008.16
2019-01-10T02:44:04.605Z,1008.17
2019-01-10T02:45:03.171Z,1008.12
2019-01-10T02:46:01.857Z,1008.1
2019-01-10T02:47:00.437Z,1008.2
2019-01-10T02:47:59.008Z,1008.21
2019-01-10T02:48:57.845Z,1008.21
2019-01-10T02:49:56.397Z,1008.15
2019-01-10T02:50:54.950Z,1008.21
2019-01-10T02:51:53.509Z,1008.21
2019-01-10T02:52:52.065Z,1008.19
2019-01-10T02:53:50.621Z,1008.17
2019-01-10T02:54:49.178Z,1008.17
2019-01-10T02:55:48.057Z,1008.14
2019-01-10T02:56:46.723Z,1008.2
2019-01-10T02:57:45.252Z,1008.2
2019-01-10T02:58:44.026Z,1008.19
2019-01-10T02:59:42.584Z,1008.19
2019-01-10T03:00:42.167Z,1008.16
2019-01-10T03:01:40.745Z,1008.16
2019-01-10T03:02:39.285Z,1008.11
2019-01-10T03:03:37.870Z,1008.1
2019-01-10T03:04:36.583Z,1008.15
2019-01-10T03:05:35.136Z,1008.15
2019-01-10T03:06:33.772Z,1008.16
2019-01-10T03:07:32.544Z,1008.19
2019-01-10T03:08:31.054Z,1008.17
2019-01-10T03:09:29.677Z,1008.18
2019-01-10T03:10:28.234Z,1008.19
2019-01-10T03:11:26.800Z,1008.18
2019-01-10T03:12:25.343Z,1008.13
2019-01-10T03:13:23.897Z,1008.16
2019-01-10T03:17:02.669Z,1008.12
2019-01-10T03:18:01.214Z,1008.11
2019-01-10T03:18:59.883Z,1008.11
2019-01-10T03:19:58.692Z,1008.11
2019-01-10T03:20:57.244Z,1008.05
2019-01-10T03:21:55.836Z,1008.01
2019-01-10T03:22:54.427Z,1008.05
2019-01-10T03:23:52.983Z,1008.01
2019-01-10T03:24:51.521Z,1008.04
2019-01-10T03:25:50.137Z,1008.02
2019-01-10T03:26:48.677Z,1008.05
2019-01-10T03:27:47.298Z,1008.07
2019-01-10T03:28:45.998Z,1008.03
2019-01-10T03:29:44.719Z,1007.97
2019-01-10T03:30:43.279Z,1007.96
2019-01-10T03:31:41.974Z,1007.99
2019-01-10T03:32:40.531Z,1007.95
2019-01-10T03:33:39.089Z,1007.99
2019-01-10T03:34:37.614Z,1007.92
2019-01-10T03:35:36.144Z,1007.9
2019-01-10T03:36:34.716Z,1007.96
2019-01-10T03:37:40.012Z,1007.95
2019-01-10T03:38:38.577Z,1007.93
2019-01-10T03:39:37.127Z,1007.98
2019-01-10T03:40:35.736Z,1007.96
2019-01-10T03:41:34.393Z,1007.95
2019-01-10T03:42:32.929Z,1007.95
2019-01-10T03:44:55.986Z,1007.96
2019-01-10T03:45:54.567Z,1008.02
2019-01-10T03:46:53.107Z,1007.98
2019-01-10T03:47:51.875Z,1007.96
2019-01-10T03:48:50.513Z,1008.02
2019-01-10T03:49:49.073Z,1008.03
2019-01-10T03:51:02.585Z,1008.03
2019-01-10T03:53:42.850Z,1008.05
2019-01-10T03:54:41.421Z,1008.07
2019-01-10T03:55:40.104Z,1008.12
2019-01-10T03:56:38.788Z,1008.13
2019-01-10T03:57:37.432Z,1008.14
2019-01-10T03:58:36.100Z,1008.11
2019-01-10T03:59:34.662Z,1008.14
2019-01-10T04:00:33.239Z,1008.1
2019-01-10T04:01:31.773Z,1008.14
2019-01-10T04:02:30.310Z,1008.1
2019-01-10T04:03:28.844Z,1008.12
2019-01-10T04:04:27.632Z,1008.11
2019-01-10T04:05:26.269Z,1008.11
2019-01-10T04:06:24.803Z,1008.15
2019-01-10T04:07:23.404Z,1008.12
2019-01-10T04:08:22.291Z,1008.16
2019-01-10T04:09:21.160Z,1008.16
2019-01-10T04:10:19.849Z,1008.13
2019-01-10T04:11:18.834Z,1008.17
2019-01-10T04:12:17.388Z,1008.17
2019-01-10T04:13:15.979Z,1008.17
2019-01-10T04:14:14.593Z,1008.21
2019-01-10T04:15:13.138Z,1008.19
2019-01-10T04:16:11.672Z,1008.19
2019-01-10T04:17:10.476Z,1008.19
2019-01-10T04:18:09.053Z,1008.15
2019-01-10T04:19:07.602Z,1008.17
2019-01-10T04:21:30.629Z,1008.16
2019-01-10T04:22:29.396Z,1008.21
2019-01-10T04:23:28.168Z,1008.15
2019-01-10T04:24:26.818Z,1008.13
2019-01-10T04:25:25.397Z,1008.14
2019-01-10T04:26:23.913Z,1008.18
2019-01-10T04:29:04.450Z,1008.13
2019-01-10T04:30:03.022Z,1008.14
2019-01-10T04:31:01.701Z,1008.14
2019-01-10T04:32:00.371Z,1008.15
2019-01-10T04:32:58.915Z,1008.15
2019-01-10T04:33:57.483Z,1008.2
2019-01-10T04:34:56.426Z,1008.19
2019-01-10T04:35:54.977Z,1008.16
2019-01-10T04:36:53.519Z,1008.21
2019-01-10T04:57:21.102Z,1008.27
2019-01-10T04:58:19.627Z,1008.27
2019-01-10T04:59:18.399Z,1008.33
2019-01-10T05:00:16.902Z,1008.36
2019-01-10T05:01:15.483Z,1008.3
2019-01-10T05:02:18.383Z,1008.37
2019-01-10T05:03:13.002Z,1008.37
2019-01-10T05:04:11.589Z,1008.41
2019-01-10T05:08:33.820Z,1008.39
2019-01-10T05:09:32.367Z,1008.43
2019-01-10T05:35:20.329Z,1008.66
2019-01-10T05:36:18.887Z,1008.65
2019-01-10T05:37:17.445Z,1008.62
2019-01-10T05:38:16.257Z,1008.64
2019-01-10T05:39:14.822Z,1008.64
2019-01-10T05:40:13.382Z,1008.63
2019-01-10T05:41:13.017Z,1008.67
2019-01-10T05:42:10.767Z,1008.68
2019-01-10T05:43:09.312Z,1008.7
2019-01-10T05:44:07.870Z,1008.71
2019-01-10T05:45:06.417Z,1008.72
2019-01-10T05:46:05.002Z,1008.73
2019-01-10T05:47:03.531Z,1008.67
2019-01-10T05:48:02.422Z,1008.71
2019-01-10T05:49:00.968Z,1008.68
2019-01-10T05:49:59.542Z,1008.72
2019-01-10T05:50:58.394Z,1008.72
2019-01-10T05:51:56.939Z,1008.76
2019-01-10T05:52:55.491Z,1008.75
2019-01-10T05:53:54.016Z,1008.73
2019-01-10T05:54:52.567Z,1008.76
2019-01-10T05:55:51.087Z,1008.75
2019-01-10T05:56:49.693Z,1008.77
2019-01-10T05:57:48.555Z,1008.77
2019-01-10T05:58:47.201Z,1008.75
2019-01-10T05:59:46.120Z,1008.77
2019-01-10T06:00:44.663Z,1008.79
2019-01-10T06:01:43.220Z,1008.8
2019-01-10T06:02:41.943Z,1008.83
2019-01-10T06:03:40.540Z,1008.84
2019-01-10T06:04:39.118Z,1008.86
2019-01-10T06:05:37.671Z,1008.85
2019-01-10T06:06:36.471Z,1008.83
2019-01-10T06:07:35.010Z,1008.85
2019-01-10T06:08:33.670Z,1008.86
2019-01-10T06:09:32.215Z,1008.89
2019-01-10T06:10:30.763Z,1008.95
2019-01-10T06:11:29.358Z,1008.88
2019-01-10T06:12:27.907Z,1008.9
2019-01-10T06:13:26.599Z,1008.93
2019-01-10T06:14:25.179Z,1008.88
2019-01-10T06:15:23.861Z,1008.91
2019-01-10T06:16:22.629Z,1008.95
2019-01-10T06:17:21.318Z,1008.91
2019-01-10T06:18:19.892Z,1008.92
2019-01-10T06:19:26.442Z,1008.96
2019-01-10T06:20:16.978Z,1008.99
2019-01-10T06:21:15.529Z,1008.99
2019-01-10T06:22:14.060Z,1008.94
2019-01-10T06:23:12.568Z,1009.02
2019-01-10T06:24:11.125Z,1008.99
2019-01-10T06:25:09.700Z,1009.06
2019-01-10T06:26:08.448Z,1009.03
2019-01-10T06:27:06.998Z,1008.95
2019-01-10T06:28:05.863Z,1009.02
2019-01-10T06:29:04.812Z,1009.01
2019-01-10T06:30:03.331Z,1009.04
2019-01-10T06:31:02.122Z,1009.03
2019-01-10T06:32:00.767Z,1009.04
2019-01-10T06:32:59.521Z,1009.09
2019-01-10T06:33:58.099Z,1009.1
2019-01-10T06:34:57.008Z,1009.11
2019-01-10T06:35:55.576Z,1009.14
2019-01-10T06:36:54.195Z,1009.04
2019-01-10T06:37:52.873Z,1009.08
2019-01-10T06:38:51.616Z,1009.05
2019-01-10T06:39:50.202Z,1009.05
2019-01-10T06:40:48.763Z,1009.08
2019-01-10T06:41:47.374Z,1009.09
2019-01-10T06:42:46.003Z,1009.13
2019-01-10T06:43:44.734Z,1009.13
2019-01-10T06:44:44.605Z,1009.13
2019-01-10T06:45:41.875Z,1009.1
2019-01-10T06:46:40.676Z,1009.09
2019-01-10T06:47:39.241Z,1009.11
2019-01-10T06:48:37.860Z,1009.14
2019-01-10T06:49:36.492Z,1009.14
2019-01-10T06:50:35.051Z,1009.14
2019-01-10T06:51:33.625Z,1009.16
2019-01-10T06:52:32.417Z,1009.2
2019-01-10T06:53:30.943Z,1009.22
2019-01-10T06:54:29.488Z,1009.22
2019-01-10T06:55:28.381Z,1009.26
2019-01-10T06:56:26.946Z,1009.28
2019-01-10T06:57:25.463Z,1009.26
2019-01-10T06:58:23.980Z,1009.32
2019-01-10T07:01:04.412Z,1009.32
2019-01-10T07:02:02.927Z,1009.34
2019-01-10T07:03:01.508Z,1009.32
2019-01-10T07:04:00.453Z,1009.35
2019-01-10T07:04:59.189Z,1009.34
2019-01-10T07:05:57.754Z,1009.35
2019-01-10T07:06:56.495Z,1009.41
2019-01-10T07:07:56.510Z,1009.41
2019-01-10T07:08:53.530Z,1009.43
2019-01-10T07:09:52.420Z,1009.44
2019-01-10T07:10:50.987Z,1009.45
2019-01-10T07:11:49.536Z,1009.43
2019-01-10T07:12:48.106Z,1009.41
2019-01-10T07:13:46.660Z,1009.41
2019-01-10T07:14:53.332Z,1009.44
2019-01-10T07:15:44.054Z,1009.47
2019-01-10T07:16:42.645Z,1009.46
2019-01-10T07:17:41.181Z,1009.5
2019-01-10T07:18:39.717Z,1009.47
2019-01-10T07:19:38.534Z,1009.47
2019-01-10T07:20:37.067Z,1009.46
2019-01-10T07:21:35.746Z,1009.46
2019-01-10T07:22:34.322Z,1009.47
2019-01-10T07:23:32.857Z,1009.48
2019-01-10T07:24:31.444Z,1009.53
2019-01-10T07:25:30.187Z,1009.52
2019-01-10T07:26:28.782Z,1009.54
2019-01-10T07:27:27.310Z,1009.57
2019-01-10T07:28:26.052Z,1009.61
2019-01-10T07:29:24.727Z,1009.55
2019-01-10T07:30:23.297Z,1009.61
2019-01-10T07:31:21.937Z,1009.68
2019-01-10T07:32:20.651Z,1009.68
2019-01-10T07:33:19.175Z,1009.66
2019-01-10T07:34:17.624Z,1009.65
2019-01-10T07:35:16.362Z,1009.69
2019-01-10T07:36:14.924Z,1009.63
2019-01-10T07:37:13.623Z,1009.61
2019-01-10T07:38:12.321Z,1009.61
2019-01-10T07:39:10.968Z,1009.62
2019-01-10T07:40:09.560Z,1009.66
2019-01-10T07:41:08.112Z,1009.64
2019-01-10T07:42:06.702Z,1009.69
2019-01-10T07:43:05.260Z,1009.68
2019-01-10T07:44:03.978Z,1009.7
2019-01-10T07:45:03.138Z,1009.69
2019-01-10T07:46:01.104Z,1009.73
2019-01-10T07:46:59.680Z,1009.74
2019-01-10T07:47:58.499Z,1009.71
2019-01-10T07:48:57.041Z,1009.79
2019-01-10T07:49:55.645Z,1009.81
2019-01-10T07:50:54.188Z,1009.82
2019-01-10T07:51:52.728Z,1009.83
2019-01-10T07:52:51.307Z,1009.88
2019-01-10T07:53:49.891Z,1009.84
2019-01-10T07:54:48.565Z,1009.83
2019-01-10T07:55:47.228Z,1009.86
2019-01-10T07:56:45.823Z,1009.87
2019-01-10T07:57:44.658Z,1009.87
2019-01-10T07:58:43.200Z,1009.94
2019-01-10T07:59:41.853Z,1009.98
2019-01-10T08:00:40.420Z,1009.99
2019-01-10T08:01:38.963Z,1009.91
2019-01-10T08:02:37.502Z,1009.94
2019-01-10T08:03:37.044Z,1009.94
2019-01-10T08:04:35.581Z,1009.94
2019-01-10T08:05:34.460Z,1009.97
2019-01-10T08:06:33.967Z,1009.98
2019-01-10T08:07:32.701Z,1009.96
2019-01-10T08:08:31.251Z,1010.01
2019-01-10T08:09:29.957Z,1010.02
2019-01-10T08:10:28.523Z,1010.05
2019-01-10T08:11:27.073Z,1010.05
2019-01-10T08:12:25.584Z,1010.08
2019-01-10T08:13:24.444Z,1010.1
2019-01-10T08:14:22.985Z,1010.05
2019-01-10T08:15:21.543Z,1010.07
2019-01-10T08:16:20.430Z,1010.05
2019-01-10T08:17:18.981Z,1010.1
2019-01-10T08:18:17.535Z,1010.15
2019-01-10T08:19:16.188Z,1010.12
2019-01-10T08:20:14.791Z,1010.14
2019-01-10T08:21:13.451Z,1010.15
2019-01-10T08:22:12.217Z,1010.2
2019-01-10T08:23:10.890Z,1010.16
2019-01-10T08:24:09.486Z,1010.22
2019-01-10T08:25:08.288Z,1010.25
2019-01-10T08:26:06.839Z,1010.19
2019-01-10T08:27:05.460Z,1010.22
2019-01-10T08:28:04.270Z,1010.24
2019-01-10T08:29:02.962Z,1010.31
2019-01-10T08:30:01.494Z,1010.23
2019-01-10T08:31:00.272Z,1010.31
2019-01-10T08:31:58.797Z,1010.35
2019-01-10T08:32:57.352Z,1010.35
2019-01-10T08:33:55.931Z,1010.37
2019-01-10T08:34:54.443Z,1010.32
2019-01-10T08:35:52.985Z,1010.39
2019-01-10T08:36:51.567Z,1010.3
2019-01-10T08:37:50.527Z,1010.34
2019-01-10T08:38:49.079Z,1010.39
2019-01-10T08:39:47.916Z,1010.38
2019-01-10T08:40:46.488Z,1010.38
2019-01-10T08:43:26.902Z,1010.4
2019-01-10T08:44:25.478Z,1010.42
2019-01-10T08:45:24.301Z,1010.41
2019-01-10T08:46:22.853Z,1010.53
2019-01-10T08:47:21.461Z,1010.48
2019-01-10T08:48:19.982Z,1010.51
2019-01-10T08:51:00.422Z,1010.48
2019-01-10T08:51:59.004Z,1010.48
2019-01-10T08:52:57.532Z,1010.46
2019-01-10T08:53:56.418Z,1010.41
2019-01-10T08:54:55.050Z,1010.45
2019-01-10T08:55:53.582Z,1010.47
2019-01-10T08:56:52.136Z,1010.47
2019-01-10T08:57:50.700Z,1010.5
2019-01-10T08:58:49.251Z,1010.52
2019-01-10T08:59:47.780Z,1010.49
2019-01-10T09:00:46.697Z,1010.51
2019-01-10T09:01:45.280Z,1010.56
2019-01-10T09:04:25.429Z,1010.5
2019-01-10T09:05:24.097Z,1010.48
2019-01-10T09:08:04.537Z,1010.5
2019-01-10T09:09:03.094Z,1010.46
2019-01-10T09:10:01.692Z,1010.47
2019-01-10T09:11:00.608Z,1010.5
2019-01-10T09:14:08.795Z,1010.55
2019-01-10T09:15:07.313Z,1010.58
2019-01-10T09:16:05.869Z,1010.6
2019-01-10T09:17:04.438Z,1010.6
2019-01-10T09:18:02.994Z,1010.59
2019-01-10T09:19:01.555Z,1010.59
2019-01-10T09:20:00.389Z,1010.61
2019-01-10T09:21:04.099Z,1010.63
2019-01-10T09:21:57.578Z,1010.68
2019-01-10T09:22:56.387Z,1010.62
2019-01-10T09:23:55.015Z,1010.62
2019-01-10T09:24:53.615Z,1010.7
2019-01-10T09:25:52.463Z,1010.67
2019-01-10T09:26:51.014Z,1010.64
2019-01-10T09:27:49.588Z,1010.7
2019-01-10T09:28:48.503Z,1010.71
2019-01-10T09:29:47.077Z,1010.71
2019-01-10T09:30:45.618Z,1010.73
2019-01-10T09:31:44.195Z,1010.74
2019-01-10T09:32:42.822Z,1010.76
2019-01-10T09:33:41.373Z,1010.75
2019-01-10T09:34:40.159Z,1010.8
2019-01-10T09:35:38.851Z,1010.78
2019-01-10T09:38:01.761Z,1010.79
2019-01-10T09:39:00.517Z,1010.83
2019-01-10T09:39:59.069Z,1010.81
2019-01-10T09:40:57.639Z,1010.84
2019-01-10T09:41:56.531Z,1010.81
2019-01-10T09:42:55.250Z,1010.97
2019-01-10T09:43:53.779Z,1010.87
2019-01-10T09:44:52.713Z,1010.92
2019-01-10T09:45:51.174Z,1010.9
2019-01-10T09:46:49.715Z,1010.92
2019-01-10T09:47:48.530Z,1010.95
2019-01-10T09:48:47.112Z,1011.02
2019-01-10T09:49:45.661Z,1011.01
2019-01-10T09:50:44.191Z,1011
2019-01-10T09:51:42.744Z,1010.97
2019-01-10T09:52:41.292Z,1011.09
2019-01-10T09:53:39.862Z,1011.07
2019-01-10T09:54:39.268Z,1011.02
2019-01-10T09:55:37.002Z,1011.12
2019-01-10T09:56:35.552Z,1011.17
2019-01-10T09:57:34.313Z,1011.12
2019-01-10T09:58:33.014Z,1011.23
2019-01-10T09:59:31.763Z,1011.17
2019-01-10T10:00:30.378Z,1011.17
2019-01-10T10:01:28.881Z,1011.15
2019-01-10T10:02:27.432Z,1011.16
2019-01-10T10:03:25.979Z,1011.16
2019-01-10T10:04:24.522Z,1011.13
2019-01-10T10:06:48.276Z,1011.16
2019-01-10T10:07:47.051Z,1011.19
2019-01-10T10:08:45.681Z,1011.2
2019-01-10T10:09:44.312Z,1011.18
2019-01-10T10:10:43.091Z,1011.18
2019-01-10T10:11:41.835Z,1011.24
2019-01-10T10:12:40.665Z,1011.24
2019-01-10T10:13:39.229Z,1011.26
2019-01-10T10:14:37.853Z,1011.21
2019-01-10T10:15:36.433Z,1011.22
2019-01-10T10:16:34.954Z,1011.2
2019-01-10T10:17:33.631Z,1011.2
2019-01-10T10:18:32.470Z,1011.19
2019-01-10T10:19:30.964Z,1011.21
2019-01-10T10:20:29.517Z,1011.19
2019-01-10T10:21:28.429Z,1011.23
2019-01-10T10:22:27.012Z,1011.26
2019-01-10T10:23:26.850Z,1011.22
2019-01-10T10:24:24.439Z,1011.24
2019-01-10T10:25:22.976Z,1011.28
2019-01-10T10:26:21.503Z,1011.21
2019-01-10T10:27:20.570Z,1011.25
2019-01-10T10:28:19.143Z,1011.26
2019-01-10T10:29:17.677Z,1011.25
2019-01-10T10:30:16.226Z,1011.22
2019-01-10T10:31:14.775Z,1011.22
2019-01-10T10:32:13.299Z,1011.26
2019-01-10T10:33:11.850Z,1011.16
2019-01-10T10:34:10.764Z,1011.2
2019-01-10T10:35:09.340Z,1011.24
2019-01-10T10:36:08.201Z,1011.13
2019-01-10T10:37:06.745Z,1011.2
2019-01-10T10:38:05.281Z,1011.18
2019-01-10T10:39:03.863Z,1011.13
2019-01-10T10:40:02.408Z,1011.17
2019-01-10T10:41:00.914Z,1011.18
2019-01-10T10:41:59.457Z,1011.22
2019-01-10T10:42:58.001Z,1011.2
2019-01-10T10:43:56.725Z,1011.2
2019-01-10T10:44:55.379Z,1011.14
2019-01-10T10:46:01.362Z,1011.14
2019-01-10T10:46:52.713Z,1011.12
2019-01-10T10:47:51.456Z,1011.13
2019-01-10T10:48:50.049Z,1011.13
2019-01-10T10:49:48.631Z,1011.08
2019-01-10T10:50:47.170Z,1011.17
2019-01-10T10:51:45.684Z,1011.1
2019-01-10T10:52:44.441Z,1011.09
2019-01-10T10:53:43.008Z,1011.11
2019-01-10T10:54:41.541Z,1011.13
2019-01-10T10:55:42.439Z,1011.14
2019-01-10T10:56:41.057Z,1011.18
2019-01-10T10:57:39.619Z,1011.15
2019-01-10T10:58:38.176Z,1011.13
2019-01-10T11:02:17.197Z,1011.2
2019-01-10T11:03:15.810Z,1011.19
2019-01-10T11:04:14.457Z,1011.17
2019-01-10T11:05:12.990Z,1011.14
2019-01-10T11:06:11.537Z,1011.15
2019-01-10T11:07:10.100Z,1011.12
2019-01-10T11:08:08.654Z,1011.16
2019-01-10T11:09:09.158Z,1011.17
2019-01-10T11:10:05.777Z,1011.14
2019-01-10T11:11:04.307Z,1011.16
2019-01-10T11:12:03.722Z,1011.13
2019-01-10T11:13:02.263Z,1011.16
2019-01-10T11:14:00.805Z,1011.17
2019-01-10T11:14:59.353Z,1011.12
2019-01-10T11:15:58.214Z,1011.12
2019-01-10T11:16:56.890Z,1011.09
2019-01-10T11:17:55.408Z,1011.13
2019-01-10T11:18:54.072Z,1011.08
2019-01-10T11:19:52.658Z,1011.14
2019-01-10T11:20:51.176Z,1011.14
2019-01-10T11:21:49.782Z,1011.12
2019-01-10T11:22:48.460Z,1011.12
2019-01-10T11:23:46.993Z,1011.14
2019-01-10T11:24:45.547Z,1011.08
2019-01-10T11:25:44.382Z,1011.17
2019-01-10T11:26:43.065Z,1011.14
2019-01-10T11:27:41.670Z,1011.07
2019-01-10T11:30:04.507Z,1011.07
2019-01-10T11:31:03.012Z,1011.02
2019-01-10T11:32:01.572Z,1011.01
2019-01-10T11:33:00.347Z,1011.09
2019-01-10T11:35:41.010Z,1011.08
2019-01-10T11:36:39.563Z,1011.04
2019-01-10T11:37:38.390Z,1011.11
2019-01-10T11:38:37.058Z,1011.1
2019-01-10T11:39:35.820Z,1011.02
2019-01-10T11:40:34.349Z,1011.07
2019-01-10T11:41:32.932Z,1011.07
2019-01-10T11:42:31.444Z,1011.11
2019-01-10T11:43:29.974Z,1011.08
2019-01-10T11:44:28.533Z,1011.13
2019-01-10T11:45:27.094Z,1011.12
2019-01-10T11:46:25.643Z,1011.12
2019-01-10T11:47:24.422Z,1011.17
2019-01-10T11:48:22.976Z,1011.12
2019-01-10T11:49:21.938Z,1011.11
2019-01-10T11:50:20.498Z,1011.06
2019-01-10T11:51:19.028Z,1011.07
2019-01-10T11:52:17.571Z,1011.1
2019-01-10T11:53:16.263Z,1011.1
2019-01-10T11:54:14.689Z,1011.11
2019-01-10T11:55:13.281Z,1011.05
2019-01-10T11:56:11.780Z,1011.01
2019-01-10T11:57:10.626Z,1011.09
2019-01-10T11:58:09.177Z,1011.05
2019-01-10T11:59:07.776Z,1011.06
2019-01-10T12:00:06.687Z,1011.04
2019-01-10T12:01:05.213Z,1011.04
2019-01-10T12:04:04.568Z,1011
2019-01-10T12:05:03.094Z,1011
2019-01-10T12:06:01.644Z,1011
2019-01-10T12:07:00.186Z,1011.02
2019-01-10T12:07:58.723Z,1010.96
2019-01-10T12:08:57.319Z,1010.98
2019-01-10T12:09:55.863Z,1010.96
2019-01-10T12:10:54.455Z,1010.89
2019-01-10T12:11:53.017Z,1010.91
2019-01-10T12:12:51.593Z,1010.87
2019-01-10T12:13:50.352Z,1010.88
2019-01-10T12:14:49.064Z,1010.93
2019-01-10T12:15:47.754Z,1010.85
2019-01-10T12:16:46.354Z,1010.87
2019-01-10T12:17:44.929Z,1010.89
2019-01-10T12:18:43.465Z,1010.92
2019-01-10T12:19:42.015Z,1010.93
2019-01-10T12:20:40.615Z,1010.98
2019-01-10T12:21:39.183Z,1010.92
2019-01-10T12:22:37.850Z,1010.94
2019-01-10T12:23:36.540Z,1010.95
2019-01-10T12:24:35.173Z,1010.86
2019-01-10T12:25:33.915Z,1010.93
2019-01-10T12:26:32.520Z,1010.94
2019-01-10T12:27:31.117Z,1010.86
2019-01-10T12:28:29.654Z,1010.93
2019-01-10T12:29:36.046Z,1010.92
2019-01-10T12:30:27.095Z,1010.9
2019-01-10T12:31:25.703Z,1010.9
2019-01-10T12:32:24.545Z,1010.91
2019-01-10T12:33:23.098Z,1010.93
2019-01-10T12:34:21.623Z,1010.92
2019-01-10T12:35:20.184Z,1010.96
2019-01-10T12:36:18.731Z,1010.93
2019-01-10T12:37:17.271Z,1010.94
2019-01-10T12:38:15.856Z,1010.89
2019-01-10T12:39:14.747Z,1010.91
2019-01-10T12:40:13.290Z,1010.93
2019-01-10T12:41:12.085Z,1010.9
2019-01-10T12:42:10.625Z,1010.95
2019-01-10T12:43:09.184Z,1010.97
2019-01-10T12:44:07.744Z,1010.9
2019-01-10T12:45:06.319Z,1010.96
2019-01-10T12:46:05.997Z,1010.9
2019-01-10T12:47:03.383Z,1010.94
2019-01-10T12:48:01.954Z,1010.88
2019-01-10T12:49:00.462Z,1010.87
2019-01-10T12:49:59.051Z,1010.86
2019-01-10T12:50:57.610Z,1010.89
2019-01-10T12:51:56.412Z,1010.87
2019-01-10T12:54:36.700Z,1010.89
2019-01-10T12:55:35.253Z,1010.86
2019-01-10T12:56:33.904Z,1010.91
2019-01-10T12:57:32.491Z,1010.9
2019-01-10T12:58:31.098Z,1010.91
2019-01-10T12:59:29.636Z,1010.99
2019-01-10T13:00:28.491Z,1010.92
2019-01-10T13:01:27.052Z,1010.98
2019-01-10T13:02:25.587Z,1010.98
2019-01-10T13:23:14.343Z,1011.04
2019-01-10T13:24:12.942Z,1011.02
2019-01-10T13:25:11.495Z,1011.04
2019-01-10T13:26:10.048Z,1011.09
2019-01-10T13:27:08.657Z,1011.04
2019-01-10T13:28:07.219Z,1011.02
2019-01-10T13:29:06.003Z,1011
2019-01-10T13:30:04.772Z,1011.02
2019-01-10T13:31:03.312Z,1011.03
2019-01-10T13:32:01.974Z,1011.06
2019-01-10T13:33:00.588Z,1011.05
2019-01-10T13:33:59.166Z,1011.05
2019-01-10T13:34:57.729Z,1011.05
2019-01-10T13:35:56.731Z,1011.11
2019-01-10T13:36:55.286Z,1011.09
2019-01-10T13:37:54.020Z,1011.09
2019-01-10T13:38:52.558Z,1011.08
2019-01-10T13:39:51.123Z,1011.1
2019-01-10T13:40:49.686Z,1011.12
2019-01-10T13:41:48.221Z,1011.1
2019-01-10T13:42:46.813Z,1011.09